KCLT/CLT METAR and TAF weather

Enter ICAO airport designator
Station Type Date Time Source
KCLT METAR 2019/04/22 19:52 UTC NOAA

KCLT 221952Z 19003KT 10SM CLR 24/08 A3012 RMK AO2 SLP197 T02390083


Station Type Date Time Source
KCLT Decoded METAR 2019/04/22 19:52 UTC NOAA

CHARLOTTE/DOUGLAS INTERNATIONAL , NC, United States (KCLT) 35-13N 80-57W 220M
Apr 22, 2019 - 03:52 PM EDT / 2019.04.22 1952 UTC
Wind: from the S (190 degrees) at 3 MPH (3 KT):0
Visibility: 10 mile(s):0
Sky conditions: clear
Temperature: 75.0 F (23.9 C)
Dew Point: 46.9 F (8.3 C)
Relative Humidity: 36%
Pressure (altimeter): 30.12 in. Hg (1019 hPa)
ob: KCLT 221952Z 19003KT 10SM CLR 24/08 A3012 RMK AO2 SLP197 T02390083
cycle: 20

Station Type Date Time Source
KCLT TAF 2019/04/22 20:54 UTC NOAA

TAF
AMD KCLT 221952Z 2220/2324 33005KT P6SM SKC
FM222200 21004KT P6SM SKC
FM230800 00000KT P6SM SKC
FM231400 22003KT P6SM FEW250

Example: see airport list